sensor_id;sensor_type;location;lat;lon;timestamp;P1;durP1;ratioP1;P2;durP2;ratioP2
51382;SDS011;37475;43.358;1.248;2022-09-13T00:02:02;13.32;;;6.68;;
51382;SDS011;37475;43.358;1.248;2022-09-13T00:04:28;12.73;;;7.00;;
51382;SDS011;37475;43.358;1.248;2022-09-13T00:06:54;11.07;;;6.88;;
51382;SDS011;37475;43.358;1.248;2022-09-13T00:09:20;13.07;;;6.78;;
51382;SDS011;37475;43.358;1.248;2022-09-13T00:11:45;12.82;;;7.30;;
51382;SDS011;37475;43.358;1.248;2022-09-13T00:14:11;13.77;;;7.22;;
51382;SDS011;37475;43.358;1.248;2022-09-13T00:16:37;10.93;;;6.60;;
51382;SDS011;37475;43.358;1.248;2022-09-13T00:19:03;10.45;;;7.18;;
51382;SDS011;37475;43.358;1.248;2022-09-13T00:21:29;10.75;;;6.93;;
51382;SDS011;37475;43.358;1.248;2022-09-13T00:23:55;11.18;;;6.43;;
51382;SDS011;37475;43.358;1.248;2022-09-13T00:26:25;13.27;;;7.57;;
51382;SDS011;37475;43.358;1.248;2022-09-13T00:28:53;12.27;;;6.95;;
51382;SDS011;37475;43.358;1.248;2022-09-13T00:31:22;13.10;;;6.80;;
51382;SDS011;37475;43.358;1.248;2022-09-13T00:33:51;15.45;;;6.63;;
51382;SDS011;37475;43.358;1.248;2022-09-13T00:36:17;11.68;;;6.65;;
51382;SDS011;37475;43.358;1.248;2022-09-13T00:38:43;10.07;;;6.82;;
51382;SDS011;37475;43.358;1.248;2022-09-13T00:41:11;10.10;;;7.28;;
51382;SDS011;37475;43.358;1.248;2022-09-13T00:43:41;12.23;;;7.03;;
51382;SDS011;37475;43.358;1.248;2022-09-13T00:49:20;10.23;;;6.60;;
51382;SDS011;37475;43.358;1.248;2022-09-13T00:51:55;11.57;;;6.50;;
51382;SDS011;37475;43.358;1.248;2022-09-13T00:54:25;11.70;;;6.90;;
51382;SDS011;37475;43.358;1.248;2022-09-13T00:56:56;13.75;;;6.63;;
51382;SDS011;37475;43.358;1.248;2022-09-13T00:59:29;13.40;;;7.53;;
51382;SDS011;37475;43.358;1.248;2022-09-13T01:02:02;12.18;;;6.90;;
51382;SDS011;37475;43.358;1.248;2022-09-13T01:04:29;14.13;;;7.10;;
51382;SDS011;37475;43.358;1.248;2022-09-13T01:06:58;16.27;;;7.15;;
51382;SDS011;37475;43.358;1.248;2022-09-13T01:09:31;13.25;;;6.72;;
51382;SDS011;37475;43.358;1.248;2022-09-13T01:12:04;14.30;;;6.93;;
51382;SDS011;37475;43.358;1.248;2022-09-13T01:14:47;11.82;;;6.80;;
51382;SDS011;37475;43.358;1.248;2022-09-13T01:17:14;10.25;;;6.63;;
51382;SDS011;37475;43.358;1.248;2022-09-13T01:19:40;12.90;;;6.90;;
51382;SDS011;37475;43.358;1.248;2022-09-13T01:31:10;12.45;;;6.55;;
51382;SDS011;37475;43.358;1.248;2022-09-13T01:33:48;12.65;;;6.65;;
51382;SDS011;37475;43.358;1.248;2022-09-13T01:36:42;13.35;;;7.53;;
51382;SDS011;37475;43.358;1.248;2022-09-13T01:48:53;13.40;;;6.32;;
51382;SDS011;37475;43.358;1.248;2022-09-13T01:51:43;11.57;;;6.57;;
51382;SDS011;37475;43.358;1.248;2022-09-13T01:56:54;11.18;;;6.20;;
51382;SDS011;37475;43.358;1.248;2022-09-13T02:02:10;11.10;;;6.38;;
51382;SDS011;37475;43.358;1.248;2022-09-13T02:04:50;11.30;;;6.45;;
51382;SDS011;37475;43.358;1.248;2022-09-13T02:07:23;12.52;;;6.78;;
51382;SDS011;37475;43.358;1.248;2022-09-13T02:10:06;10.75;;;6.15;;
51382;SDS011;37475;43.358;1.248;2022-09-13T02:12:39;11.63;;;6.20;;
51382;SDS011;37475;43.358;1.248;2022-09-13T02:17:37;9.90;;;6.40;;
51382;SDS011;37475;43.358;1.248;2022-09-13T02:20:29;14.48;;;6.30;;
51382;SDS011;37475;43.358;1.248;2022-09-13T02:23:02;10.02;;;6.22;;
51382;SDS011;37475;43.358;1.248;2022-09-13T02:25:34;9.43;;;6.18;;
51382;SDS011;37475;43.358;1.248;2022-09-13T02:28:04;11.77;;;6.45;;
51382;SDS011;37475;43.358;1.248;2022-09-13T02:30:36;11.55;;;6.57;;
51382;SDS011;37475;43.358;1.248;2022-09-13T02:33:11;13.43;;;6.50;;
51382;SDS011;37475;43.358;1.248;2022-09-13T02:35:45;8.63;;;5.72;;
51382;SDS011;37475;43.358;1.248;2022-09-13T02:41:02;10.32;;;6.63;;
51382;SDS011;37475;43.358;1.248;2022-09-13T02:43:38;9.25;;;6.05;;
51382;SDS011;37475;43.358;1.248;2022-09-13T02:58:22;8.23;;;5.45;;
51382;SDS011;37475;43.358;1.248;2022-09-13T03:01:15;9.38;;;5.53;;
51382;SDS011;37475;43.358;1.248;2022-09-13T03:03:41;8.65;;;5.70;;
51382;SDS011;37475;43.358;1.248;2022-09-13T03:06:08;10.13;;;5.60;;
51382;SDS011;37475;43.358;1.248;2022-09-13T03:08:34;9.88;;;5.47;;
51382;SDS011;37475;43.358;1.248;2022-09-13T03:19:39;9.48;;;5.57;;
51382;SDS011;37475;43.358;1.248;2022-09-13T03:22:56;9.23;;;5.20;;
51382;SDS011;37475;43.358;1.248;2022-09-13T03:25:49;9.68;;;5.60;;
51382;SDS011;37475;43.358;1.248;2022-09-13T03:31:37;7.57;;;5.18;;
51382;SDS011;37475;43.358;1.248;2022-09-13T03:34:39;7.82;;;4.97;;
51382;SDS011;37475;43.358;1.248;2022-09-13T03:37:27;9.43;;;5.47;;
51382;SDS011;37475;43.358;1.248;2022-09-13T03:40:06;8.38;;;5.03;;
51382;SDS011;37475;43.358;1.248;2022-09-13T03:42:47;8.32;;;5.10;;
51382;SDS011;37475;43.358;1.248;2022-09-13T03:45:20;7.80;;;5.43;;
51382;SDS011;37475;43.358;1.248;2022-09-13T03:47:52;9.02;;;4.50;;
51382;SDS011;37475;43.358;1.248;2022-09-13T03:50:20;8.98;;;4.95;;
51382;SDS011;37475;43.358;1.248;2022-09-13T03:52:50;7.53;;;4.80;;
51382;SDS011;37475;43.358;1.248;2022-09-13T03:55:20;7.75;;;4.80;;
51382;SDS011;37475;43.358;1.248;2022-09-13T03:57:47;8.23;;;4.85;;
51382;SDS011;37475;43.358;1.248;2022-09-13T04:00:13;8.73;;;4.80;;
51382;SDS011;37475;43.358;1.248;2022-09-13T04:02:42;9.10;;;4.97;;
51382;SDS011;37475;43.358;1.248;2022-09-13T04:05:08;8.02;;;4.50;;
51382;SDS011;37475;43.358;1.248;2022-09-13T04:07:34;8.02;;;4.10;;
51382;SDS011;37475;43.358;1.248;2022-09-13T04:10:00;8.40;;;4.90;;
51382;SDS011;37475;43.358;1.248;2022-09-13T04:12:26;8.02;;;4.57;;
51382;SDS011;37475;43.358;1.248;2022-09-13T04:14:55;9.82;;;5.68;;
51382;SDS011;37475;43.358;1.248;2022-09-13T04:17:21;7.70;;;4.68;;
51382;SDS011;37475;43.358;1.248;2022-09-13T04:19:47;8.80;;;4.80;;
51382;SDS011;37475;43.358;1.248;2022-09-13T04:22:13;9.73;;;4.68;;
51382;SDS011;37475;43.358;1.248;2022-09-13T04:24:39;8.55;;;4.70;;
51382;SDS011;37475;43.358;1.248;2022-09-13T04:27:07;8.68;;;4.55;;
51382;SDS011;37475;43.358;1.248;2022-09-13T04:29:33;11.05;;;4.78;;
51382;SDS011;37475;43.358;1.248;2022-09-13T04:31:59;11.68;;;4.53;;
51382;SDS011;37475;43.358;1.248;2022-09-13T04:34:25;8.15;;;4.78;;
51382;SDS011;37475;43.358;1.248;2022-09-13T04:36:52;8.65;;;4.60;;
51382;SDS011;37475;43.358;1.248;2022-09-13T04:39:18;8.23;;;4.53;;
51382;SDS011;37475;43.358;1.248;2022-09-13T04:41:45;9.70;;;4.57;;
51382;SDS011;37475;43.358;1.248;2022-09-13T04:44:13;7.95;;;4.22;;
51382;SDS011;37475;43.358;1.248;2022-09-13T04:46:41;9.68;;;4.68;;
51382;SDS011;37475;43.358;1.248;2022-09-13T04:49:10;8.48;;;4.35;;
51382;SDS011;37475;43.358;1.248;2022-09-13T04:51:38;8.98;;;4.40;;
51382;SDS011;37475;43.358;1.248;2022-09-13T04:54:04;10.95;;;4.57;;
51382;SDS011;37475;43.358;1.248;2022-09-13T04:56:30;8.57;;;4.85;;
51382;SDS011;37475;43.358;1.248;2022-09-13T04:58:56;9.30;;;5.00;;
51382;SDS011;37475;43.358;1.248;2022-09-13T05:01:22;7.05;;;4.45;;
51382;SDS011;37475;43.358;1.248;2022-09-13T05:03:49;7.43;;;4.32;;
51382;SDS011;37475;43.358;1.248;2022-09-13T05:06:17;6.80;;;4.50;;
51382;SDS011;37475;43.358;1.248;2022-09-13T05:08:48;8.07;;;4.43;;
51382;SDS011;37475;43.358;1.248;2022-09-13T05:11:19;9.50;;;4.57;;
51382;SDS011;37475;43.358;1.248;2022-09-13T05:13:51;5.95;;;4.20;;
51382;SDS011;37475;43.358;1.248;2022-09-13T05:16:19;9.05;;;4.85;;
51382;SDS011;37475;43.358;1.248;2022-09-13T05:18:50;8.63;;;4.10;;
51382;SDS011;37475;43.358;1.248;2022-09-13T05:21:17;8.82;;;4.85;;
51382;SDS011;37475;43.358;1.248;2022-09-13T05:23:44;8.20;;;4.63;;
51382;SDS011;37475;43.358;1.248;2022-09-13T05:26:13;6.55;;;4.38;;
51382;SDS011;37475;43.358;1.248;2022-09-13T05:28:39;7.25;;;4.15;;
51382;SDS011;37475;43.358;1.248;2022-09-13T05:31:06;7.97;;;4.35;;
51382;SDS011;37475;43.358;1.248;2022-09-13T05:33:40;11.73;;;4.70;;
51382;SDS011;37475;43.358;1.248;2022-09-13T05:36:06;7.75;;;4.53;;
51382;SDS011;37475;43.358;1.248;2022-09-13T05:38:32;13.18;;;4.60;;
51382;SDS011;37475;43.358;1.248;2022-09-13T05:40:59;9.57;;;4.03;;
51382;SDS011;37475;43.358;1.248;2022-09-13T05:43:28;12.43;;;4.38;;
51382;SDS011;37475;43.358;1.248;2022-09-13T05:46:16;6.70;;;4.30;;
51382;SDS011;37475;43.358;1.248;2022-09-13T05:48:44;14.15;;;4.80;;
51382;SDS011;37475;43.358;1.248;2022-09-13T05:51:16;8.77;;;4.38;;
51382;SDS011;37475;43.358;1.248;2022-09-13T05:53:43;9.70;;;4.50;;
51382;SDS011;37475;43.358;1.248;2022-09-13T05:56:12;8.75;;;4.18;;
51382;SDS011;37475;43.358;1.248;2022-09-13T05:58:41;11.32;;;4.15;;
51382;SDS011;37475;43.358;1.248;2022-09-13T06:01:10;6.93;;;4.28;;
51382;SDS011;37475;43.358;1.248;2022-09-13T06:03:37;7.97;;;4.03;;
51382;SDS011;37475;43.358;1.248;2022-09-13T06:06:04;9.70;;;4.15;;
51382;SDS011;37475;43.358;1.248;2022-09-13T06:08:31;9.55;;;4.03;;
51382;SDS011;37475;43.358;1.248;2022-09-13T06:13:28;10.15;;;3.60;;
51382;SDS011;37475;43.358;1.248;2022-09-13T06:15:55;9.15;;;3.95;;
51382;SDS011;37475;43.358;1.248;2022-09-13T06:18:23;10.90;;;4.00;;
51382;SDS011;37475;43.358;1.248;2022-09-13T06:20:50;7.50;;;4.05;;
51382;SDS011;37475;43.358;1.248;2022-09-13T06:23:23;8.73;;;3.78;;
51382;SDS011;37475;43.358;1.248;2022-09-13T06:25:49;7.82;;;3.80;;
51382;SDS011;37475;43.358;1.248;2022-09-13T06:28:15;8.60;;;4.00;;
51382;SDS011;37475;43.358;1.248;2022-09-13T06:30:40;9.27;;;3.80;;
51382;SDS011;37475;43.358;1.248;2022-09-13T06:33:06;6.82;;;3.80;;
51382;SDS011;37475;43.358;1.248;2022-09-13T06:35:32;11.07;;;4.00;;
51382;SDS011;37475;43.358;1.248;2022-09-13T06:37:58;7.90;;;3.60;;
51382;SDS011;37475;43.358;1.248;2022-09-13T06:40:24;10.35;;;3.33;;
51382;SDS011;37475;43.358;1.248;2022-09-13T06:42:50;8.02;;;3.85;;
51382;SDS011;37475;43.358;1.248;2022-09-13T06:45:16;11.63;;;4.30;;
51382;SDS011;37475;43.358;1.248;2022-09-13T06:47:42;10.32;;;3.78;;
51382;SDS011;37475;43.358;1.248;2022-09-13T06:50:09;7.47;;;3.60;;
51382;SDS011;37475;43.358;1.248;2022-09-13T06:52:34;7.85;;;3.50;;
51382;SDS011;37475;43.358;1.248;2022-09-13T06:55:01;10.02;;;3.75;;
51382;SDS011;37475;43.358;1.248;2022-09-13T06:57:31;8.80;;;3.38;;
51382;SDS011;37475;43.358;1.248;2022-09-13T06:59:57;8.80;;;3.10;;
51382;SDS011;37475;43.358;1.248;2022-09-13T07:02:22;8.32;;;3.80;;
51382;SDS011;37475;43.358;1.248;2022-09-13T07:04:49;7.10;;;3.00;;
51382;SDS011;37475;43.358;1.248;2022-09-13T07:07:15;10.00;;;3.47;;
51382;SDS011;37475;43.358;1.248;2022-09-13T07:09:41;15.10;;;3.50;;
51382;SDS011;37475;43.358;1.248;2022-09-13T07:12:07;8.38;;;3.10;;
51382;SDS011;37475;43.358;1.248;2022-09-13T07:14:33;9.00;;;3.33;;
51382;SDS011;37475;43.358;1.248;2022-09-13T07:16:59;8.32;;;3.20;;
51382;SDS011;37475;43.358;1.248;2022-09-13T07:19:26;8.43;;;3.45;;
51382;SDS011;37475;43.358;1.248;2022-09-13T07:21:54;4.85;;;3.00;;
51382;SDS011;37475;43.358;1.248;2022-09-13T07:24:21;9.57;;;3.47;;
51382;SDS011;37475;43.358;1.248;2022-09-13T07:26:47;8.13;;;3.10;;
51382;SDS011;37475;43.358;1.248;2022-09-13T07:29:15;7.15;;;3.20;;
51382;SDS011;37475;43.358;1.248;2022-09-13T07:31:44;8.07;;;2.90;;
51382;SDS011;37475;43.358;1.248;2022-09-13T07:34:17;12.38;;;3.42;;
51382;SDS011;37475;43.358;1.248;2022-09-13T07:36:45;8.95;;;3.35;;
51382;SDS011;37475;43.358;1.248;2022-09-13T07:39:12;10.02;;;3.45;;
51382;SDS011;37475;43.358;1.248;2022-09-13T07:41:39;9.77;;;3.13;;
51382;SDS011;37475;43.358;1.248;2022-09-13T07:44:05;11.23;;;2.70;;
51382;SDS011;37475;43.358;1.248;2022-09-13T07:46:34;7.63;;;2.78;;
51382;SDS011;37475;43.358;1.248;2022-09-13T07:49:07;7.55;;;3.35;;
51382;SDS011;37475;43.358;1.248;2022-09-13T07:51:38;8.68;;;2.92;;
51382;SDS011;37475;43.358;1.248;2022-09-13T07:54:09;8.93;;;2.70;;
51382;SDS011;37475;43.358;1.248;2022-09-13T07:56:40;10.05;;;2.90;;
51382;SDS011;37475;43.358;1.248;2022-09-13T07:59:10;10.20;;;2.78;;
51382;SDS011;37475;43.358;1.248;2022-09-13T08:01:41;15.38;;;3.00;;
51382;SDS011;37475;43.358;1.248;2022-09-13T08:04:14;9.38;;;2.90;;
51382;SDS011;37475;43.358;1.248;2022-09-13T08:06:42;8.73;;;2.88;;
51382;SDS011;37475;43.358;1.248;2022-09-13T08:09:10;10.32;;;2.60;;
51382;SDS011;37475;43.358;1.248;2022-09-13T08:11:38;10.18;;;2.65;;
51382;SDS011;37475;43.358;1.248;2022-09-13T08:14:15;10.32;;;2.80;;
51382;SDS011;37475;43.358;1.248;2022-09-13T08:16:42;5.95;;;2.58;;
51382;SDS011;37475;43.358;1.248;2022-09-13T08:19:09;9.00;;;2.50;;
51382;SDS011;37475;43.358;1.248;2022-09-13T08:21:39;7.93;;;2.72;;
51382;SDS011;37475;43.358;1.248;2022-09-13T08:24:06;6.10;;;2.40;;
51382;SDS011;37475;43.358;1.248;2022-09-13T08:26:39;10.73;;;3.22;;
51382;SDS011;37475;43.358;1.248;2022-09-13T08:29:05;11.18;;;2.50;;
51382;SDS011;37475;43.358;1.248;2022-09-13T08:31:32;9.07;;;2.67;;
51382;SDS011;37475;43.358;1.248;2022-09-13T08:33:59;7.30;;;2.50;;
51382;SDS011;37475;43.358;1.248;2022-09-13T08:36:25;10.48;;;2.50;;
51382;SDS011;37475;43.358;1.248;2022-09-13T08:38:53;14.15;;;2.75;;
51382;SDS011;37475;43.358;1.248;2022-09-13T08:44:16;10.10;;;2.40;;
51382;SDS011;37475;43.358;1.248;2022-09-13T08:49:40;9.27;;;2.60;;
51382;SDS011;37475;43.358;1.248;2022-09-13T08:54:48;13.70;;;2.50;;
51382;SDS011;37475;43.358;1.248;2022-09-13T08:57:21;12.18;;;2.80;;
51382;SDS011;37475;43.358;1.248;2022-09-13T09:03:04;10.13;;;2.50;;
51382;SDS011;37475;43.358;1.248;2022-09-13T09:05:46;7.70;;;2.25;;
51382;SDS011;37475;43.358;1.248;2022-09-13T09:10:52;10.77;;;2.63;;
51382;SDS011;37475;43.358;1.248;2022-09-13T09:16:40;9.85;;;2.88;;
51382;SDS011;37475;43.358;1.248;2022-09-13T09:22:05;13.45;;;2.95;;
51382;SDS011;37475;43.358;1.248;2022-09-13T09:24:39;10.82;;;2.70;;
51382;SDS011;37475;43.358;1.248;2022-09-13T09:27:14;9.38;;;2.50;;
51382;SDS011;37475;43.358;1.248;2022-09-13T09:29:43;12.63;;;2.50;;
51382;SDS011;37475;43.358;1.248;2022-09-13T09:40:42;18.17;;;3.00;;
51382;SDS011;37475;43.358;1.248;2022-09-13T09:43:19;8.32;;;2.13;;
51382;SDS011;37475;43.358;1.248;2022-09-13T09:45:57;11.75;;;2.83;;
51382;SDS011;37475;43.358;1.248;2022-09-13T09:48:28;17.88;;;2.78;;
51382;SDS011;37475;43.358;1.248;2022-09-13T09:51:04;12.10;;;2.38;;
51382;SDS011;37475;43.358;1.248;2022-09-13T09:53:35;17.20;;;2.72;;
51382;SDS011;37475;43.358;1.248;2022-09-13T09:56:20;9.85;;;2.45;;
51382;SDS011;37475;43.358;1.248;2022-09-13T09:58:54;9.35;;;2.38;;
51382;SDS011;37475;43.358;1.248;2022-09-13T10:01:33;7.15;;;2.42;;
51382;SDS011;37475;43.358;1.248;2022-09-13T10:04:06;7.57;;;2.20;;
51382;SDS011;37475;43.358;1.248;2022-09-13T10:06:36;8.80;;;2.53;;
51382;SDS011;37475;43.358;1.248;2022-09-13T10:17:01;9.35;;;2.28;;
51382;SDS011;37475;43.358;1.248;2022-09-13T10:19:29;6.70;;;2.10;;
51382;SDS011;37475;43.358;1.248;2022-09-13T10:22:03;6.82;;;2.22;;
51382;SDS011;37475;43.358;1.248;2022-09-13T10:24:35;5.82;;;1.92;;
51382;SDS011;37475;43.358;1.248;2022-09-13T10:27:01;9.90;;;2.00;;
51382;SDS011;37475;43.358;1.248;2022-09-13T10:29:29;7.20;;;2.40;;
51382;SDS011;37475;43.358;1.248;2022-09-13T10:31:57;7.18;;;2.22;;
51382;SDS011;37475;43.358;1.248;2022-09-13T10:36:59;9.35;;;2.42;;
51382;SDS011;37475;43.358;1.248;2022-09-13T10:39:26;10.75;;;2.45;;
51382;SDS011;37475;43.358;1.248;2022-09-13T10:41:59;6.88;;;2.42;;
51382;SDS011;37475;43.358;1.248;2022-09-13T10:47:12;6.90;;;2.50;;
51382;SDS011;37475;43.358;1.248;2022-09-13T10:50:21;7.25;;;2.50;;
51382;SDS011;37475;43.358;1.248;2022-09-13T10:52:51;8.03;;;2.30;;
51382;SDS011;37475;43.358;1.248;2022-09-13T11:00:12;8.07;;;2.10;;
51382;SDS011;37475;43.358;1.248;2022-09-13T11:22:34;6.13;;;2.30;;
51382;SDS011;37475;43.358;1.248;2022-09-13T11:28:28;6.18;;;2.50;;
51382;SDS011;37475;43.358;1.248;2022-09-13T11:31:55;6.18;;;2.03;;
51382;SDS011;37475;43.358;1.248;2022-09-13T11:34:55;8.13;;;2.35;;
51382;SDS011;37475;43.358;1.248;2022-09-13T11:41:17;8.40;;;2.70;;
51382;SDS011;37475;43.358;1.248;2022-09-13T11:49:51;8.30;;;3.70;;
51382;SDS011;37475;43.358;1.248;2022-09-13T11:55:27;9.13;;;2.60;;
51382;SDS011;37475;43.358;1.248;2022-09-13T11:58:00;7.60;;;3.00;;
51382;SDS011;37475;43.358;1.248;2022-09-13T12:00:42;10.75;;;2.55;;
51382;SDS011;37475;43.358;1.248;2022-09-13T12:03:24;7.28;;;2.15;;
51382;SDS011;37475;43.358;1.248;2022-09-13T12:06:06;9.00;;;2.55;;
51382;SDS011;37475;43.358;1.248;2022-09-13T12:08:54;8.45;;;2.35;;
51382;SDS011;37475;43.358;1.248;2022-09-13T12:12:03;7.53;;;2.08;;
51382;SDS011;37475;43.358;1.248;2022-09-13T12:14:46;5.93;;;2.20;;
51382;SDS011;37475;43.358;1.248;2022-09-13T12:17:30;9.05;;;2.38;;
51382;SDS011;37475;43.358;1.248;2022-09-13T12:20:12;8.05;;;2.20;;
51382;SDS011;37475;43.358;1.248;2022-09-13T12:23:08;8.43;;;2.30;;
51382;SDS011;37475;43.358;1.248;2022-09-13T12:28:27;8.48;;;2.17;;
51382;SDS011;37475;43.358;1.248;2022-09-13T12:31:13;6.72;;;2.08;;
51382;SDS011;37475;43.358;1.248;2022-09-13T13:02:25;19.20;;;2.10;;
51382;SDS011;37475;43.358;1.248;2022-09-13T13:05:00;16.00;;;2.47;;
51382;SDS011;37475;43.358;1.248;2022-09-13T13:08:15;17.60;;;2.33;;
51382;SDS011;37475;43.358;1.248;2022-09-13T13:10:59;5.88;;;1.65;;
51382;SDS011;37475;43.358;1.248;2022-09-13T13:13:36;10.30;;;1.55;;
51382;SDS011;37475;43.358;1.248;2022-09-13T13:16:04;14.27;;;2.55;;
51382;SDS011;37475;43.358;1.248;2022-09-13T13:18:58;7.63;;;1.92;;
51382;SDS011;37475;43.358;1.248;2022-09-13T13:29:31;13.27;;;2.25;;
51382;SDS011;37475;43.358;1.248;2022-09-13T13:34:42;35.28;;;3.13;;
51382;SDS011;37475;43.358;1.248;2022-09-13T13:39:44;11.10;;;1.70;;
51382;SDS011;37475;43.358;1.248;2022-09-13T13:42:23;25.67;;;1.83;;
51382;SDS011;37475;43.358;1.248;2022-09-13T13:49:52;5.75;;;1.50;;
51382;SDS011;37475;43.358;1.248;2022-09-13T14:00:50;5.47;;;1.45;;
51382;SDS011;37475;43.358;1.248;2022-09-13T14:08:56;18.67;;;2.10;;
51382;SDS011;37475;43.358;1.248;2022-09-13T14:17:58;11.02;;;1.33;;
51382;SDS011;37475;43.358;1.248;2022-09-13T14:21:00;12.02;;;1.55;;
51382;SDS011;37475;43.358;1.248;2022-09-13T14:23:29;16.95;;;1.27;;
51382;SDS011;37475;43.358;1.248;2022-09-13T14:25:58;11.02;;;1.27;;
51382;SDS011;37475;43.358;1.248;2022-09-13T14:28:25;4.07;;;0.93;;
51382;SDS011;37475;43.358;1.248;2022-09-13T14:30:56;6.80;;;1.10;;
51382;SDS011;37475;43.358;1.248;2022-09-13T14:33:25;5.82;;;1.20;;
51382;SDS011;37475;43.358;1.248;2022-09-13T14:36:00;6.10;;;1.10;;
51382;SDS011;37475;43.358;1.248;2022-09-13T14:38:31;4.25;;;0.80;;
51382;SDS011;37475;43.358;1.248;2022-09-13T14:43:46;3.90;;;0.98;;
51382;SDS011;37475;43.358;1.248;2022-09-13T14:48:52;5.47;;;0.55;;
51382;SDS011;37475;43.358;1.248;2022-09-13T14:54:15;6.28;;;0.80;;
51382;SDS011;37475;43.358;1.248;2022-09-13T14:56:50;4.78;;;0.80;;
51382;SDS011;37475;43.358;1.248;2022-09-13T15:02:04;4.47;;;0.70;;
51382;SDS011;37475;43.358;1.248;2022-09-13T15:04:31;5.38;;;0.85;;
51382;SDS011;37475;43.358;1.248;2022-09-13T15:10:19;4.25;;;0.75;;
51382;SDS011;37475;43.358;1.248;2022-09-13T15:13:08;2.80;;;0.60;;
51382;SDS011;37475;43.358;1.248;2022-09-13T15:23:34;11.85;;;1.05;;
51382;SDS011;37475;43.358;1.248;2022-09-13T15:26:04;9.25;;;0.70;;
51382;SDS011;37475;43.358;1.248;2022-09-13T15:31:08;5.10;;;0.65;;
51382;SDS011;37475;43.358;1.248;2022-09-13T15:33:35;3.40;;;0.82;;
51382;SDS011;37475;43.358;1.248;2022-09-13T15:36:21;6.95;;;0.85;;
51382;SDS011;37475;43.358;1.248;2022-09-13T15:42:08;9.32;;;1.13;;
51382;SDS011;37475;43.358;1.248;2022-09-13T15:44:20;5.90;;;0.80;;
51382;SDS011;37475;43.358;1.248;2022-09-13T15:46:48;1.42;;;0.55;;
51382;SDS011;37475;43.358;1.248;2022-09-13T15:49:17;3.47;;;0.60;;
51382;SDS011;37475;43.358;1.248;2022-09-13T15:51:51;4.25;;;0.75;;
51382;SDS011;37475;43.358;1.248;2022-09-13T15:54:31;2.55;;;0.63;;
51382;SDS011;37475;43.358;1.248;2022-09-13T15:57:07;4.10;;;0.88;;
51382;SDS011;37475;43.358;1.248;2022-09-13T15:59:38;3.92;;;0.75;;
51382;SDS011;37475;43.358;1.248;2022-09-13T16:02:15;6.25;;;0.90;;
51382;SDS011;37475;43.358;1.248;2022-09-13T16:04:54;8.70;;;1.00;;
51382;SDS011;37475;43.358;1.248;2022-09-13T16:07:22;2.35;;;0.60;;
51382;SDS011;37475;43.358;1.248;2022-09-13T16:09:50;4.13;;;0.85;;
51382;SDS011;37475;43.358;1.248;2022-09-13T16:12:16;3.60;;;0.75;;
51382;SDS011;37475;43.358;1.248;2022-09-13T16:14:43;3.65;;;0.60;;
51382;SDS011;37475;43.358;1.248;2022-09-13T16:17:15;4.95;;;0.65;;
51382;SDS011;37475;43.358;1.248;2022-09-13T16:19:48;3.45;;;0.60;;
51382;SDS011;37475;43.358;1.248;2022-09-13T16:22:15;2.90;;;0.60;;
51382;SDS011;37475;43.358;1.248;2022-09-13T16:24:41;3.30;;;0.75;;
51382;SDS011;37475;43.358;1.248;2022-09-13T16:27:08;3.83;;;0.55;;
51382;SDS011;37475;43.358;1.248;2022-09-13T16:29:38;6.50;;;0.82;;
51382;SDS011;37475;43.358;1.248;2022-09-13T16:32:05;6.03;;;0.70;;
51382;SDS011;37475;43.358;1.248;2022-09-13T16:34:31;3.42;;;0.60;;
51382;SDS011;37475;43.358;1.248;2022-09-13T16:36:57;3.33;;;0.70;;
51382;SDS011;37475;43.358;1.248;2022-09-13T16:39:23;10.20;;;1.08;;
51382;SDS011;37475;43.358;1.248;2022-09-13T16:41:49;3.88;;;0.70;;
51382;SDS011;37475;43.358;1.248;2022-09-13T16:44:15;3.13;;;0.82;;
51382;SDS011;37475;43.358;1.248;2022-09-13T16:46:41;5.78;;;0.93;;
51382;SDS011;37475;43.358;1.248;2022-09-13T16:49:07;3.95;;;0.98;;
51382;SDS011;37475;43.358;1.248;2022-09-13T16:51:34;6.10;;;1.00;;
51382;SDS011;37475;43.358;1.248;2022-09-13T16:54:00;8.60;;;0.73;;
51382;SDS011;37475;43.358;1.248;2022-09-13T16:56:27;3.78;;;0.70;;
51382;SDS011;37475;43.358;1.248;2022-09-13T16:58:54;4.18;;;0.75;;
51382;SDS011;37475;43.358;1.248;2022-09-13T17:01:22;9.80;;;1.02;;
51382;SDS011;37475;43.358;1.248;2022-09-13T17:03:51;4.90;;;0.90;;
51382;SDS011;37475;43.358;1.248;2022-09-13T17:06:18;3.85;;;0.80;;
51382;SDS011;37475;43.358;1.248;2022-09-13T17:08:46;3.25;;;0.85;;
51382;SDS011;37475;43.358;1.248;2022-09-13T17:11:19;6.47;;;0.90;;
51382;SDS011;37475;43.358;1.248;2022-09-13T17:13:50;5.38;;;0.77;;
51382;SDS011;37475;43.358;1.248;2022-09-13T17:16:27;12.77;;;1.33;;
51382;SDS011;37475;43.358;1.248;2022-09-13T17:18:55;7.25;;;1.00;;
51382;SDS011;37475;43.358;1.248;2022-09-13T17:21:24;7.00;;;0.88;;
51382;SDS011;37475;43.358;1.248;2022-09-13T17:23:51;8.45;;;1.33;;
51382;SDS011;37475;43.358;1.248;2022-09-13T17:26:18;5.03;;;0.80;;
51382;SDS011;37475;43.358;1.248;2022-09-13T17:28:44;6.95;;;0.95;;
51382;SDS011;37475;43.358;1.248;2022-09-13T17:31:10;4.10;;;0.82;;
51382;SDS011;37475;43.358;1.248;2022-09-13T17:33:35;5.30;;;1.17;;
51382;SDS011;37475;43.358;1.248;2022-09-13T17:36:06;11.00;;;1.33;;
51382;SDS011;37475;43.358;1.248;2022-09-13T17:38:34;5.57;;;1.20;;
51382;SDS011;37475;43.358;1.248;2022-09-13T17:41:11;8.48;;;1.30;;
51382;SDS011;37475;43.358;1.248;2022-09-13T17:43:42;6.38;;;0.90;;
51382;SDS011;37475;43.358;1.248;2022-09-13T17:46:12;7.47;;;1.30;;
51382;SDS011;37475;43.358;1.248;2022-09-13T17:48:46;7.43;;;1.23;;
51382;SDS011;37475;43.358;1.248;2022-09-13T17:51:18;8.00;;;1.17;;
51382;SDS011;37475;43.358;1.248;2022-09-13T17:53:48;6.88;;;0.90;;
51382;SDS011;37475;43.358;1.248;2022-09-13T17:56:26;7.03;;;0.90;;
51382;SDS011;37475;43.358;1.248;2022-09-13T17:59:03;5.95;;;1.08;;
51382;SDS011;37475;43.358;1.248;2022-09-13T18:01:39;6.40;;;1.10;;
51382;SDS011;37475;43.358;1.248;2022-09-13T18:04:07;4.60;;;1.05;;
51382;SDS011;37475;43.358;1.248;2022-09-13T18:06:35;4.78;;;0.90;;
51382;SDS011;37475;43.358;1.248;2022-09-13T18:09:02;3.53;;;0.90;;
51382;SDS011;37475;43.358;1.248;2022-09-13T18:11:28;4.53;;;1.00;;
51382;SDS011;37475;43.358;1.248;2022-09-13T18:13:54;10.50;;;1.40;;
51382;SDS011;37475;43.358;1.248;2022-09-13T18:16:22;8.65;;;1.25;;
51382;SDS011;37475;43.358;1.248;2022-09-13T18:18:51;6.97;;;1.15;;
51382;SDS011;37475;43.358;1.248;2022-09-13T18:21:18;6.15;;;0.93;;
51382;SDS011;37475;43.358;1.248;2022-09-13T18:23:47;4.72;;;0.80;;
51382;SDS011;37475;43.358;1.248;2022-09-13T18:26:17;6.45;;;0.90;;
51382;SDS011;37475;43.358;1.248;2022-09-13T18:28:46;4.63;;;0.88;;
51382;SDS011;37475;43.358;1.248;2022-09-13T18:31:17;4.25;;;0.90;;
51382;SDS011;37475;43.358;1.248;2022-09-13T18:33:43;6.32;;;1.00;;
51382;SDS011;37475;43.358;1.248;2022-09-13T18:36:11;7.93;;;1.02;;
51382;SDS011;37475;43.358;1.248;2022-09-13T18:38:40;6.97;;;1.08;;
51382;SDS011;37475;43.358;1.248;2022-09-13T18:41:14;8.82;;;1.02;;
51382;SDS011;37475;43.358;1.248;2022-09-13T18:43:44;12.52;;;1.23;;
51382;SDS011;37475;43.358;1.248;2022-09-13T18:46:13;10.15;;;1.48;;
51382;SDS011;37475;43.358;1.248;2022-09-13T18:48:46;8.02;;;1.40;;
51382;SDS011;37475;43.358;1.248;2022-09-13T18:51:16;15.82;;;1.63;;
51382;SDS011;37475;43.358;1.248;2022-09-13T18:54:03;6.63;;;1.27;;
51382;SDS011;37475;43.358;1.248;2022-09-13T18:56:31;8.07;;;1.80;;
51382;SDS011;37475;43.358;1.248;2022-09-13T18:58:58;8.75;;;2.03;;
51382;SDS011;37475;43.358;1.248;2022-09-13T19:01:27;10.00;;;1.90;;
51382;SDS011;37475;43.358;1.248;2022-09-13T19:03:59;11.75;;;2.00;;
51382;SDS011;37475;43.358;1.248;2022-09-13T19:06:29;13.98;;;2.50;;
51382;SDS011;37475;43.358;1.248;2022-09-13T19:09:01;7.70;;;2.28;;